createdAt,value
2023-03-30T00:01:17.715Z,101321.83
2023-03-30T00:03:48.083Z,101317.79
2023-03-30T00:06:23.593Z,101317.42
2023-03-30T00:08:57.337Z,101320.67
2023-03-30T00:11:27.151Z,101323.45
2023-03-30T00:13:55.698Z,101320.80
2023-03-30T00:16:24.103Z,101327.84
2023-03-30T00:18:52.544Z,101327.73
2023-03-30T00:21:21.431Z,101323.67
2023-03-30T00:23:50.495Z,101325.95
2023-03-30T00:26:19.209Z,101325.82
2023-03-30T00:28:47.384Z,101325.67
2023-03-30T00:31:15.781Z,101326.92
2023-03-30T00:33:47.048Z,101328.73
2023-03-30T00:36:17.266Z,101332.38
2023-03-30T00:38:46.445Z,101331.11
2023-03-30T00:41:16.147Z,101327.48
2023-03-30T00:44:06.029Z,101327.73
2023-03-30T00:46:35.083Z,101330.61
2023-03-30T00:49:09.481Z,101329.04
2023-03-30T00:51:42.759Z,101333.34
2023-03-30T00:54:17.052Z,101334.38
2023-03-30T00:56:46.318Z,101341.34
2023-03-30T00:59:14.930Z,101344.82
2023-03-30T01:01:50.122Z,101345.20
2023-03-30T01:04:19.098Z,101344.23
2023-03-30T01:06:49.068Z,101347.21
2023-03-30T01:09:18.487Z,101339.21
2023-03-30T01:11:47.152Z,101339.13
2023-03-30T01:14:16.977Z,101342.04
2023-03-30T01:17:01.785Z,101348.59
2023-03-30T01:19:45.592Z,101343.03
2023-03-30T01:22:37.112Z,101340.91
2023-03-30T01:25:50.755Z,101350.17
2023-03-30T01:28:36.128Z,101350.95
2023-03-30T01:31:12.584Z,101353.81
2023-03-30T01:34:08.830Z,101355.48
2023-03-30T01:36:51.547Z,101357.99
2023-03-30T01:39:27.332Z,101357.02
2023-03-30T01:42:04.789Z,101350.80
2023-03-30T01:44:41.777Z,101349.11
2023-03-30T01:47:18.344Z,101347.83
2023-03-30T01:49:59.725Z,101351.08
2023-03-30T01:52:53.956Z,101347.78
2023-03-30T01:55:47.380Z,101351.48
2023-03-30T01:58:37.982Z,101349.84
2023-03-30T02:01:10.153Z,101349.20
2023-03-30T02:03:43.324Z,101347.66
2023-03-30T02:06:20.659Z,101350.64
2023-03-30T02:08:50.768Z,101348.50
2023-03-30T02:11:19.227Z,101350.03
2023-03-30T02:13:47.916Z,101351.23
2023-03-30T02:16:22.787Z,101354.98
2023-03-30T02:18:51.738Z,101356.80
2023-03-30T02:21:20.013Z,101357.48
2023-03-30T02:23:49.009Z,101365.59
2023-03-30T02:26:17.492Z,101367.71
2023-03-30T02:28:47.302Z,101370.08
2023-03-30T02:31:17.076Z,101376.08
2023-03-30T02:33:57.064Z,101377.42
2023-03-30T02:36:42.001Z,101374.98
2023-03-30T02:39:28.955Z,101379.96
2023-03-30T02:41:57.327Z,101383.29
2023-03-30T02:44:48.235Z,101377.15
2023-03-30T02:47:37.145Z,101378.53
2023-03-30T02:50:31.489Z,101374.98
2023-03-30T02:53:23.490Z,101372.52
2023-03-30T02:56:04.274Z,101368.88
2023-03-30T02:58:48.022Z,101374.45
2023-03-30T03:01:28.638Z,101373.33
2023-03-30T03:04:04.419Z,101377.52
2023-03-30T03:06:40.514Z,101377.27
2023-03-30T03:09:09.458Z,101379.91
2023-03-30T03:11:37.911Z,101383.50
2023-03-30T03:14:08.102Z,101389.77
2023-03-30T03:16:36.411Z,101393.09
2023-03-30T03:19:13.673Z,101390.92
2023-03-30T03:21:42.350Z,101388.98
2023-03-30T03:24:13.521Z,101390.33
2023-03-30T03:27:02.714Z,101394.52
2023-03-30T03:29:35.213Z,101392.10
2023-03-30T03:32:04.033Z,101396.30
2023-03-30T03:34:39.714Z,101396.64
2023-03-30T03:37:08.564Z,101399.70
2023-03-30T03:39:37.765Z,101399.45
2023-03-30T03:42:11.683Z,101407.58
2023-03-30T03:44:47.938Z,101409.52
2023-03-30T03:47:17.029Z,101410.95
2023-03-30T03:49:45.820Z,101417.25
2023-03-30T03:52:14.000Z,101419.19
2023-03-30T03:54:42.578Z,101418.60
2023-03-30T03:57:11.498Z,101423.89
2023-03-30T03:59:39.956Z,101421.49
2023-03-30T04:02:08.273Z,101427.52
2023-03-30T04:04:36.575Z,101428.02
2023-03-30T04:07:05.809Z,101427.73
2023-03-30T04:09:34.197Z,101430.54
2023-03-30T04:12:02.771Z,101433.99
2023-03-30T04:14:39.134Z,101436.76
2023-03-30T04:17:15.068Z,101436.77
2023-03-30T04:20:12.965Z,101438.61
2023-03-30T04:23:02.147Z,101443.30
2023-03-30T04:25:52.097Z,101446.21
2023-03-30T04:29:00.433Z,101459.91
2023-03-30T04:31:48.660Z,101465.74
2023-03-30T04:34:31.289Z,101464.99
2023-03-30T04:37:07.675Z,101464.63
2023-03-30T04:40:13.361Z,101461.96
2023-03-30T04:43:04.545Z,101460.38
2023-03-30T04:45:53.451Z,101459.55
2023-03-30T04:48:40.095Z,101457.58
2023-03-30T04:51:35.095Z,101462.59
2023-03-30T04:54:33.251Z,101462.44
2023-03-30T04:57:21.207Z,101466.93
2023-03-30T05:00:13.806Z,101467.81
2023-03-30T05:02:42.234Z,101468.52
2023-03-30T05:05:43.494Z,101469.77
2023-03-30T05:08:19.754Z,101468.43
2023-03-30T05:11:08.511Z,101469.44
2023-03-30T05:13:53.029Z,101477.27
2023-03-30T05:16:34.392Z,101468.86
2023-03-30T05:19:26.182Z,101467.66
2023-03-30T05:22:21.387Z,101466.80
2023-03-30T05:25:13.126Z,101463.69
2023-03-30T05:28:01.463Z,101466.91
2023-03-30T05:30:44.690Z,101466.42
2023-03-30T05:33:48.815Z,101462.85
2023-03-30T05:36:20.606Z,101459.27
2023-03-30T05:39:11.677Z,101465.33
2023-03-30T05:41:52.034Z,101468.63
2023-03-30T05:44:27.889Z,101470.88
2023-03-30T05:47:14.708Z,101476.08
2023-03-30T05:49:58.132Z,101479.17
2023-03-30T05:53:02.457Z,101474.61
2023-03-30T05:55:49.787Z,101474.62
2023-03-30T05:58:34.232Z,101481.37
2023-03-30T06:01:09.678Z,101477.06
2023-03-30T06:03:40.373Z,101475.46
2023-03-30T06:06:10.127Z,101478.09
2023-03-30T06:08:42.042Z,101479.45
2023-03-30T06:11:13.839Z,101488.30
2023-03-30T06:13:46.833Z,101489.02
2023-03-30T06:16:15.868Z,101489.05
2023-03-30T06:18:45.329Z,101495.19
2023-03-30T06:21:15.978Z,101499.34
2023-03-30T06:24:09.126Z,101498.31
2023-03-30T06:26:38.931Z,101496.25
2023-03-30T06:29:07.834Z,101496.15
2023-03-30T06:31:36.749Z,101501.20
2023-03-30T06:34:25.282Z,101510.76
2023-03-30T06:36:54.069Z,101509.46
2023-03-30T06:39:25.589Z,101509.70
2023-03-30T06:41:54.197Z,101509.36
2023-03-30T06:44:42.855Z,101516.34
2023-03-30T06:47:15.321Z,101517.59
2023-03-30T06:49:44.018Z,101519.68
2023-03-30T06:52:46.388Z,101517.11
2023-03-30T06:55:15.584Z,101518.07
2023-03-30T06:57:43.968Z,101517.59
2023-03-30T07:00:13.981Z,101511.46
2023-03-30T07:02:44.950Z,101512.45
2023-03-30T07:05:33.678Z,101507.80
2023-03-30T07:08:25.097Z,101506.99
2023-03-30T07:10:54.602Z,101509.79
2023-03-30T07:13:24.414Z,101507.69
2023-03-30T07:15:53.203Z,101500.73
2023-03-30T07:18:21.583Z,101496.36
2023-03-30T07:20:51.571Z,101493.33
2023-03-30T07:23:22.238Z,101490.62
2023-03-30T07:25:53.286Z,101486.79
2023-03-30T07:28:26.036Z,101483.46
2023-03-30T07:30:54.530Z,101482.33
2023-03-30T07:33:23.762Z,101488.23
2023-03-30T07:35:53.233Z,101482.86
2023-03-30T07:38:25.000Z,101479.95
2023-03-30T07:40:56.059Z,101481.48
2023-03-30T07:43:27.322Z,101482.38
2023-03-30T07:45:56.878Z,101484.79
2023-03-30T07:48:31.022Z,101482.48
2023-03-30T07:51:04.343Z,101480.61
2023-03-30T07:53:34.421Z,101477.64
2023-03-30T07:56:04.544Z,101478.16
2023-03-30T07:58:40.507Z,101485.13
2023-03-30T08:01:08.986Z,101481.38
2023-03-30T08:03:57.486Z,101480.28
2023-03-30T08:06:27.562Z,101474.61
2023-03-30T08:08:58.702Z,101472.26
2023-03-30T08:11:27.590Z,101472.70
2023-03-30T08:13:55.962Z,101475.84
2023-03-30T08:16:24.414Z,101472.13
2023-03-30T08:18:55.016Z,101468.98
2023-03-30T08:21:26.267Z,101463.90
2023-03-30T08:23:58.084Z,101464.83
2023-03-30T08:26:28.467Z,101462.73
2023-03-30T08:28:57.555Z,101457.66
2023-03-30T08:31:26.238Z,101456.17
2023-03-30T08:33:54.772Z,101458.63
2023-03-30T08:36:23.361Z,101459.27
2023-03-30T08:38:54.259Z,101453.73
2023-03-30T08:41:24.988Z,101449.07
2023-03-30T08:43:54.742Z,101445.88
2023-03-30T08:46:23.057Z,101440.48
2023-03-30T08:48:54.066Z,101439.90
2023-03-30T08:51:29.309Z,101434.44
2023-03-30T08:54:05.673Z,101431.34
2023-03-30T08:56:43.286Z,101428.91
2023-03-30T08:59:37.649Z,101426.42
2023-03-30T09:02:27.766Z,101425.04
2023-03-30T09:05:02.198Z,101416.96
2023-03-30T09:07:37.293Z,101416.29
2023-03-30T09:10:12.589Z,101416.09
2023-03-30T09:12:46.661Z,101415.77
2023-03-30T09:15:22.918Z,101416.57
2023-03-30T09:18:20.079Z,101413.75
2023-03-30T09:20:52.457Z,101403.63
2023-03-30T09:23:21.750Z,101405.34
2023-03-30T09:26:12.074Z,101401.98
2023-03-30T09:29:16.458Z,101400.73
2023-03-30T09:32:21.693Z,101400.48
2023-03-30T09:35:01.141Z,101390.27
2023-03-30T09:37:30.676Z,101385.97
2023-03-30T09:39:59.551Z,101376.75
2023-03-30T09:43:16.377Z,101368.89
2023-03-30T09:45:45.804Z,101369.27
2023-03-30T09:48:16.492Z,101362.88
2023-03-30T09:50:46.903Z,101359.22
2023-03-30T09:53:26.799Z,101359.61
2023-03-30T09:56:00.504Z,101354.31
2023-03-30T09:58:34.276Z,101349.02
2023-03-30T10:01:24.403Z,101345.92
2023-03-30T10:04:11.129Z,101344.43
2023-03-30T10:06:47.494Z,101335.55
2023-03-30T10:09:21.495Z,101335.44
2023-03-30T10:11:55.376Z,101331.20
2023-03-30T10:14:37.364Z,101326.00
2023-03-30T10:17:06.741Z,101315.00
2023-03-30T10:19:38.446Z,101315.45
2023-03-30T10:22:17.909Z,101308.64
2023-03-30T10:24:55.575Z,101309.65
2023-03-30T10:27:34.519Z,101309.11
2023-03-30T10:30:11.267Z,101305.50
2023-03-30T10:32:46.830Z,101300.70
2023-03-30T10:35:22.350Z,101293.64
2023-03-30T10:37:54.633Z,101289.85
2023-03-30T10:40:36.811Z,101286.05
2023-03-30T10:43:08.769Z,101280.08
2023-03-30T10:45:44.758Z,101282.48
2023-03-30T10:48:52.153Z,101280.94
2023-03-30T10:51:31.339Z,101271.96
2023-03-30T10:54:27.707Z,101265.52
2023-03-30T10:57:03.415Z,101265.77
2023-03-30T10:59:53.067Z,101255.95
2023-03-30T11:02:46.666Z,101251.27
2023-03-30T11:05:32.011Z,101236.27
2023-03-30T11:08:04.455Z,101233.55
2023-03-30T11:10:48.197Z,101228.95
2023-03-30T11:13:35.388Z,101222.95
2023-03-30T11:16:27.069Z,101215.30
2023-03-30T11:19:12.763Z,101209.38
2023-03-30T11:21:50.527Z,101204.95
2023-03-30T11:24:21.779Z,101203.97
2023-03-30T11:26:56.395Z,101203.38
2023-03-30T11:29:53.604Z,101196.64
2023-03-30T11:32:42.037Z,101199.74
2023-03-30T11:35:30.266Z,101182.79
2023-03-30T11:38:01.900Z,101176.77
2023-03-30T11:40:43.982Z,101177.83
2023-03-30T11:43:15.208Z,101179.55
2023-03-30T11:46:00.723Z,101170.44
2023-03-30T11:48:38.366Z,101170.45
2023-03-30T11:51:24.731Z,101167.09
2023-03-30T11:54:21.308Z,101150.20
2023-03-30T11:56:58.568Z,101149.38
2023-03-30T11:59:54.588Z,101144.92
2023-03-30T12:02:36.747Z,101140.98
2023-03-30T12:05:38.033Z,101132.94
2023-03-30T12:08:18.503Z,101126.47
2023-03-30T12:11:02.617Z,101125.33
2023-03-30T12:13:44.575Z,101121.58
2023-03-30T12:16:28.400Z,101119.38
2023-03-30T12:19:15.704Z,101125.46
2023-03-30T12:21:53.302Z,101116.97
2023-03-30T12:24:43.799Z,101105.14
2023-03-30T12:27:12.172Z,101110.41
2023-03-30T12:30:02.429Z,101107.57
2023-03-30T12:32:35.987Z,101099.77
2023-03-30T12:35:43.093Z,101092.72
2023-03-30T12:38:22.122Z,101095.56
2023-03-30T12:41:14.764Z,101090.98
2023-03-30T12:43:43.224Z,101085.58
2023-03-30T12:46:26.633Z,101083.81
2023-03-30T12:48:55.038Z,101090.95
2023-03-30T12:51:58.842Z,101081.89
2023-03-30T12:54:30.090Z,101075.26
2023-03-30T12:56:58.284Z,101076.98
2023-03-30T12:59:36.399Z,101077.75
2023-03-30T13:02:33.926Z,101067.48
2023-03-30T13:05:03.219Z,101059.05
2023-03-30T13:07:36.382Z,101053.88
2023-03-30T13:10:30.211Z,101047.38
2023-03-30T13:13:00.275Z,101044.02
2023-03-30T13:15:47.225Z,101046.11
2023-03-30T13:18:40.966Z,101043.85
2023-03-30T13:21:24.802Z,101045.11
2023-03-30T13:24:46.163Z,101043.45
2023-03-30T13:27:14.453Z,101036.11
2023-03-30T13:29:52.763Z,101029.60
2023-03-30T13:32:39.354Z,101022.33
2023-03-30T13:35:18.499Z,101024.98
2023-03-30T13:38:21.174Z,101019.19
2023-03-30T13:41:29.386Z,101017.08
2023-03-30T13:44:03.403Z,101012.68
2023-03-30T13:46:47.375Z,101012.36
2023-03-30T13:49:50.902Z,101009.77
2023-03-30T13:52:28.844Z,101002.21
2023-03-30T13:54:58.120Z,100997.15
2023-03-30T13:57:35.673Z,100994.23
2023-03-30T14:00:28.696Z,100993.95
2023-03-30T14:02:57.091Z,100991.31
2023-03-30T14:05:28.032Z,100994.78
2023-03-30T14:07:59.671Z,100988.55
2023-03-30T14:10:29.236Z,100987.55
2023-03-30T14:12:58.090Z,100981.75
2023-03-30T14:15:37.899Z,100982.46
2023-03-30T14:18:13.920Z,100975.93
2023-03-30T14:20:50.139Z,100976.29
2023-03-30T14:23:23.712Z,100972.52
2023-03-30T14:26:01.297Z,100975.10
2023-03-30T14:28:34.323Z,100968.98
2023-03-30T14:31:11.545Z,100965.05
2023-03-30T14:33:41.322Z,100965.80
2023-03-30T14:36:12.759Z,100964.90
2023-03-30T14:38:52.824Z,100962.05
2023-03-30T14:41:27.749Z,100958.80
2023-03-30T14:43:57.278Z,100954.66
2023-03-30T14:46:32.913Z,100954.75
2023-03-30T14:49:01.708Z,100949.16
2023-03-30T14:51:40.643Z,100946.80
2023-03-30T14:54:15.779Z,100940.98
2023-03-30T14:56:58.984Z,100938.93
2023-03-30T14:59:29.011Z,100930.11
2023-03-30T15:01:58.353Z,100931.02
2023-03-30T15:04:34.500Z,100929.15
2023-03-30T15:07:05.864Z,100924.21
2023-03-30T15:09:39.333Z,100924.42
2023-03-30T15:12:08.629Z,100926.89
2023-03-30T15:14:40.481Z,100920.73
2023-03-30T15:17:18.489Z,100922.81
2023-03-30T15:19:50.040Z,100918.48
2023-03-30T15:22:27.179Z,100918.58
2023-03-30T15:24:59.160Z,100916.09
2023-03-30T15:27:28.152Z,100912.86
2023-03-30T15:29:59.201Z,100913.84
2023-03-30T15:32:40.143Z,100913.92
2023-03-30T15:35:14.376Z,100914.29
2023-03-30T15:37:57.025Z,100914.27
2023-03-30T15:40:30.636Z,100905.77
2023-03-30T15:43:16.717Z,100902.52
2023-03-30T15:46:07.865Z,100900.97
2023-03-30T15:48:51.316Z,100900.44
2023-03-30T15:51:37.978Z,100900.89
2023-03-30T15:54:21.612Z,100898.51
2023-03-30T15:57:11.361Z,100901.80
2023-03-30T15:59:52.579Z,100896.59
2023-03-30T16:02:22.273Z,100891.79
2023-03-30T16:04:51.859Z,100889.52
2023-03-30T16:07:22.723Z,100893.63
2023-03-30T16:09:51.728Z,100891.79
2023-03-30T16:12:28.550Z,100892.63
2023-03-30T16:14:58.773Z,100891.95
2023-03-30T16:17:27.350Z,100893.49
2023-03-30T16:19:55.904Z,100891.95
2023-03-30T16:22:24.211Z,100893.49
2023-03-30T16:24:53.464Z,100889.71
2023-03-30T16:27:22.460Z,100891.84
2023-03-30T16:29:50.708Z,100887.42
2023-03-30T16:32:19.374Z,100893.20
2023-03-30T16:34:47.601Z,100893.56
2023-03-30T16:37:15.976Z,100888.19
2023-03-30T16:39:46.910Z,100890.58
2023-03-30T16:42:15.821Z,100886.61
2023-03-30T16:44:44.244Z,100889.80
2023-03-30T16:47:12.566Z,100889.29
2023-03-30T16:49:40.842Z,100891.38
2023-03-30T16:52:10.040Z,100889.23
2023-03-30T16:54:38.524Z,100888.61
2023-03-30T16:57:09.798Z,100886.73
2023-03-30T16:59:38.558Z,100885.04
2023-03-30T17:02:13.025Z,100889.27
2023-03-30T17:04:45.677Z,100889.70
2023-03-30T17:07:13.938Z,100880.14
2023-03-30T17:09:42.212Z,100872.58
2023-03-30T17:12:10.694Z,100873.52
2023-03-30T17:14:42.560Z,100875.48
2023-03-30T17:17:12.162Z,100878.28
2023-03-30T17:19:41.000Z,100879.52
2023-03-30T17:22:09.111Z,100880.29
2023-03-30T17:24:37.198Z,100876.56
2023-03-30T17:27:06.499Z,100877.67
2023-03-30T17:29:35.043Z,100877.30
2023-03-30T17:32:06.666Z,100874.95
2023-03-30T17:34:34.822Z,100876.42
2023-03-30T17:37:03.295Z,100871.25
2023-03-30T17:39:31.794Z,100871.64
2023-03-30T17:42:01.075Z,100871.17
2023-03-30T17:44:29.657Z,100874.00
2023-03-30T17:46:58.239Z,100866.92
2023-03-30T17:49:26.616Z,100861.51
2023-03-30T17:51:54.787Z,100856.34
2023-03-30T17:54:24.097Z,100855.36
2023-03-30T17:56:52.776Z,100856.73
2023-03-30T17:59:21.269Z,100858.77
2023-03-30T18:01:49.527Z,100862.73
2023-03-30T18:04:17.714Z,100868.05
2023-03-30T18:06:48.908Z,100867.61
2023-03-30T18:09:17.363Z,100869.30
2023-03-30T18:11:45.825Z,100869.70
2023-03-30T18:14:14.217Z,100863.82
2023-03-30T18:16:44.799Z,100866.33
2023-03-30T18:19:14.148Z,100871.08
2023-03-30T18:21:44.774Z,100868.04
2023-03-30T18:24:12.941Z,100866.17
2023-03-30T18:26:43.176Z,100860.83
2023-03-30T18:29:22.298Z,100855.16
2023-03-30T18:31:51.208Z,100855.27
2023-03-30T18:34:19.775Z,100851.61
2023-03-30T18:36:48.146Z,100851.75
2023-03-30T18:39:20.141Z,100855.10
2023-03-30T18:41:52.260Z,100854.96
2023-03-30T18:44:20.863Z,100850.59
2023-03-30T18:46:51.918Z,100844.16
2023-03-30T18:49:23.978Z,100841.02
2023-03-30T18:51:52.749Z,100837.29
2023-03-30T18:54:21.138Z,100832.92
2023-03-30T18:56:51.612Z,100834.23
2023-03-30T18:59:23.116Z,100828.05
2023-03-30T19:01:51.782Z,100823.73
2023-03-30T19:04:19.972Z,100824.84
2023-03-30T19:06:48.150Z,100822.68
2023-03-30T19:09:16.732Z,100818.48
2023-03-30T19:11:45.011Z,100815.73
2023-03-30T19:14:13.184Z,100813.91
2023-03-30T19:16:42.164Z,100817.88
2023-03-30T19:19:14.911Z,100815.86
2023-03-30T19:21:43.749Z,100808.14
2023-03-30T19:24:14.072Z,100805.07
2023-03-30T19:26:42.352Z,100801.71
2023-03-30T19:29:11.183Z,100802.60
2023-03-30T19:31:39.454Z,100798.06
2023-03-30T19:34:07.902Z,100800.16
2023-03-30T19:36:36.603Z,100798.73
2023-03-30T19:39:05.064Z,100794.31
2023-03-30T19:41:33.479Z,100792.70
2023-03-30T19:44:01.930Z,100791.91
2023-03-30T19:46:30.038Z,100795.02
2023-03-30T19:48:58.488Z,100792.95
2023-03-30T19:51:26.863Z,100790.30
2023-03-30T19:53:57.247Z,100780.63
2023-03-30T19:56:26.810Z,100778.41
2023-03-30T19:58:55.276Z,100773.23
2023-03-30T20:01:23.714Z,100770.52
2023-03-30T20:03:52.383Z,100762.31
2023-03-30T20:06:20.623Z,100762.98
2023-03-30T20:08:49.025Z,100763.05
2023-03-30T20:11:17.375Z,100762.92
2023-03-30T20:13:46.175Z,100760.45
2023-03-30T20:16:22.830Z,100756.98
2023-03-30T20:18:55.425Z,100755.63
2023-03-30T20:21:26.379Z,100748.14
2023-03-30T20:23:58.730Z,100744.91
2023-03-30T20:26:29.378Z,100736.00
2023-03-30T20:28:57.433Z,100733.77
2023-03-30T20:31:26.161Z,100727.48
2023-03-30T20:33:54.805Z,100730.79
2023-03-30T20:36:23.598Z,100728.52
2023-03-30T20:38:52.176Z,100734.84
2023-03-30T20:41:21.901Z,100732.67
2023-03-30T20:43:56.974Z,100732.29
2023-03-30T20:46:35.041Z,100730.09
2023-03-30T20:49:04.029Z,100723.84
2023-03-30T20:51:32.814Z,100723.91
2023-03-30T20:54:01.411Z,100726.20
2023-03-30T20:56:29.876Z,100719.88
2023-03-30T20:58:58.474Z,100713.14
2023-03-30T21:01:29.478Z,100710.30
2023-03-30T21:03:59.662Z,100707.98
2023-03-30T21:06:30.484Z,100706.23
2023-03-30T21:09:01.852Z,100707.95
2023-03-30T21:11:33.624Z,100703.39
2023-03-30T21:14:02.239Z,100702.63
2023-03-30T21:16:31.078Z,100699.35
2023-03-30T21:18:59.539Z,100697.14
2023-03-30T21:21:28.019Z,100696.56
2023-03-30T21:23:57.547Z,100695.39
2023-03-30T21:26:26.641Z,100687.38
2023-03-30T21:28:55.883Z,100688.01
2023-03-30T21:31:24.664Z,100678.98
2023-03-30T21:33:53.586Z,100677.68
2023-03-30T21:36:22.039Z,100675.45
2023-03-30T21:38:50.973Z,100672.10
2023-03-30T21:41:21.305Z,100666.16
2023-03-30T21:43:49.741Z,100662.46
2023-03-30T21:46:20.696Z,100661.98
2023-03-30T21:48:53.693Z,100660.14
2023-03-30T21:51:28.854Z,100660.29
2023-03-30T21:53:58.237Z,100652.67
2023-03-30T21:56:29.583Z,100655.91
2023-03-30T21:58:59.187Z,100659.06
2023-03-30T22:01:28.189Z,100649.69
2023-03-30T22:03:56.945Z,100635.02
2023-03-30T22:06:25.476Z,100629.23
2023-03-30T22:08:53.950Z,100622.25
2023-03-30T22:11:25.476Z,100613.88
2023-03-30T22:13:55.492Z,100606.58
2023-03-30T22:16:28.428Z,100608.05
2023-03-30T22:18:57.284Z,100603.14
2023-03-30T22:21:34.626Z,100597.24
2023-03-30T22:24:04.792Z,100595.95
2023-03-30T22:26:33.990Z,100593.55
2023-03-30T22:29:02.374Z,100592.21
2023-03-30T22:31:30.976Z,100595.63
2023-03-30T22:33:59.651Z,100598.08
2023-03-30T22:36:31.015Z,100599.75
2023-03-30T22:39:01.103Z,100603.80
2023-03-30T22:41:31.136Z,100607.16
2023-03-30T22:43:59.509Z,100599.95
2023-03-30T22:46:28.197Z,100598.07
2023-03-30T22:48:56.761Z,100599.71
2023-03-30T22:51:28.549Z,100596.89
2023-03-30T22:53:58.785Z,100590.02
2023-03-30T22:56:28.929Z,100589.42
2023-03-30T22:58:59.095Z,100583.98
2023-03-30T23:01:29.380Z,100581.36
2023-03-30T23:03:59.661Z,100578.56
2023-03-30T23:06:28.133Z,100577.00
2023-03-30T23:08:56.403Z,100572.45
2023-03-30T23:11:26.621Z,100562.86
2023-03-30T23:13:55.816Z,100558.38
2023-03-30T23:16:24.330Z,100554.27
2023-03-30T23:18:52.494Z,100557.16
2023-03-30T23:21:22.502Z,100550.98
2023-03-30T23:23:51.176Z,100550.39
2023-03-30T23:26:19.749Z,100549.41
2023-03-30T23:28:48.046Z,100542.50
2023-03-30T23:31:19.064Z,100548.64
2023-03-30T23:33:47.350Z,100549.27
2023-03-30T23:36:19.432Z,100551.09
2023-03-30T23:38:48.391Z,100546.00
2023-03-30T23:41:18.553Z,100544.15
2023-03-30T23:43:47.741Z,100536.60
2023-03-30T23:46:16.343Z,100526.19
2023-03-30T23:48:44.600Z,100524.35
2023-03-30T23:51:12.992Z,100517.23
2023-03-30T23:53:41.876Z,100517.76
2023-03-30T23:56:17.378Z,100520.34
2023-03-30T23:58:46.521Z,100517.64
